Sunday, October 21, 2018, 9:20 PM EDT
Back to Local

KMMU, Morristown Municipal

Location: Morristown, NJ, United States Lat: 40.8
Local Time: 9:20 PM EDT ( 1:20 GMT) Lon: -74.417
Time Zone: US/Eastern Elev: 187 ft

Show me the last for .
Show Decoded

2018-10-21 20:45 METAR KMMU 220045Z 00000KT 10SM SKC 00/M01 A3015 =
2018-10-21 19:45 METAR KMMU 212345Z 32003KT 10SM SKC 04/M02 A3013 =
2018-10-21 18:45 METAR KMMU 212245Z 32006KT 10SM SKC 05/M03 A3010 =
2018-10-21 17:45 METAR KMMU 212145Z 33006G16KT 10SM FEW055 06/M04 A3008 =
2018-10-21 16:45 METAR KMMU 212045Z 33007G20KT 10SM FEW050 07/M03 A3004 =
2018-10-21 15:45 METAR KMMU 211945Z 35014G23KT 10SM SCT049 07/M03 A3002 =
2018-10-21 14:45 METAR KMMU 211845Z 32013G21KT 10SM BKN049 07/M03 A3001 =
2018-10-21 13:45 METAR KMMU 211745Z 32013G24KT 10SM OVC045 07/M01 A3000 =
2018-10-21 12:45 METAR KMMU 211645Z 35010G22KT 10SM BKN043 07/M01 A2998 =
2018-10-21 11:45 METAR KMMU 211545Z 34011G20KT 10SM BKN042 07/M01 A2998 =
2018-10-21 10:50 METAR KMMU 211450Z 35017G25KT 10SM BKN044 07/M01 A2997 =
2018-10-21 09:45 METAR KMMU 211345Z 01011G28KT 10SM BKN046 07/M01 A2995 =
2018-10-21 08:45 METAR KMMU 211245Z 36012G30KT 10SM BKN042 07/M01 A2992 =
2018-10-21 07:45 METAR KMMU 211145Z 36012G26KT 10SM SCT040 SCT120 07/00 A2987 =
2018-10-21 06:45 METAR KMMU 211045Z 34009G17KT 10SM SCT070 BKN090 08/04 A2979 =
2018-10-21 06:35 METAR KMMU 211035Z AUTO 32009G17KT 280V350 10SM SCT070 OVC090 08/04 A2977 RMK
                 AO2 =
2018-10-21 06:15 METAR KMMU 211015Z AUTO 31008KT 10SM BKN070 OVC090 08/04 A2976 RMK AO2 =
2018-10-21 05:55 METAR KMMU 210955Z AUTO 32009KT 10SM SCT060 OVC080 08/04 A2973 RMK AO2 =
2018-10-21 05:35 METAR KMMU 210935Z AUTO 32007KT 10SM OVC060 08/04 A2972 RMK AO2 =
2018-10-21 05:15 METAR KMMU 210915Z AUTO 32008G14KT 10SM OVC050 08/04 A2971 RMK AO2 =
2018-10-21 04:55 METAR KMMU 210855Z AUTO 33009KT 10SM OVC050 08/04 A2969 RMK AO2 =
2018-10-21 04:35 METAR KMMU 210835Z AUTO 32007KT 10SM SCT041 OVC047 08/05 A2968 RMK AO2 =
2018-10-21 04:15 METAR KMMU 210815Z AUTO 33009KT 10SM OVC038 08/05 A2967 RMK AO2 =
2018-10-21 03:55 METAR KMMU 210755Z AUTO 33006G16KT 10SM OVC034 08/05 A2966 RMK AO2 =
2018-10-21 03:35 METAR KMMU 210735Z AUTO 32008KT 10SM OVC030 09/06 A2965 RMK AO2 =
2018-10-21 03:15 METAR KMMU 210715Z AUTO 32007KT 10SM BKN031 OVC036 09/06 A2965 RMK AO2 =
2018-10-21 02:55 METAR KMMU 210655Z AUTO 31007KT 280V340 10SM SCT024 OVC036 09/07 A2964 RMK AO2 =
2018-10-21 02:35 METAR KMMU 210635Z AUTO 31005KT 10SM SCT024 SCT120 09/07 A2964 RMK AO2 =
2018-10-21 02:15 METAR KMMU 210615Z AUTO 29003KT 10SM SCT020 SCT120 09/07 A2962 RMK AO2 =
2018-10-21 01:55 METAR KMMU 210555Z AUTO 25009KT 10SM SCT095 BKN120 09/08 A2962 RMK AO2 =
2018-10-21 01:35 METAR KMMU 210535Z AUTO 30004KT 10SM SCT095 OVC120 09/07 A2960 RMK AO2 =
2018-10-21 01:15 METAR KMMU 210515Z AUTO 01006KT 10SM SCT050 SCT065 BKN120 09/08 A2959 RMK AO2 =
2018-10-21 00:55 METAR KMMU 210455Z AUTO 30003KT 10SM DZ BKN048 BKN065 OVC120 09/08 A2963 RMK AO2
                 =
2018-10-21 00:35 METAR KMMU 210435Z AUTO 24004KT 10SM RA BKN050 OVC065 09/08 A2964 RMK AO2 P0001
                 =
2018-10-21 00:15 METAR KMMU 210415Z AUTO 25005KT 10SM RA SCT050 OVC060 09/07 A2965 RMK AO2 =
2018-10-20 23:55 METAR KMMU 210355Z AUTO 27004KT 10SM OVC060 09/07 A2964 RMK AO2 =
2018-10-20 23:35 METAR KMMU 210335Z AUTO 00000KT 10SM OVC060 10/07 A2965 RMK AO2 =
2018-10-20 23:15 METAR KMMU 210315Z AUTO 00000KT 10SM SCT060 OVC090 09/07 A2964 RMK AO2 LTG DSNT
                 S =
2018-10-20 22:55 METAR KMMU 210255Z AUTO 02004KT 10SM SCT043 SCT050 BKN090 09/06 A2964 RMK AO2 =
2018-10-20 22:35 METAR KMMU 210235Z AUTO 29006KT 10SM BKN055 BKN075 OVC110 07/07 A2965 RMK AO2 =
2018-10-20 22:15 METAR KMMU 210215Z AUTO 00000KT 10SM SCT065 SCT075 BKN110 07/07 A2963 RMK AO2 =
2018-10-20 21:45 METAR KMMU 210145Z 00000KT 10SM BKN055 BKN065 BKN080 08/07 A2964 =

Support USWX by starting your Amazon purchase here.